首页
METAR-TAF:

METAR-TAF

机场 :

華雷斯城, 墨西哥

纬度: 31-38N, 经度: 106-26W, 海拔: 1171米

当前天气观测

该预报发布于9小时和10分钟前的02:41 UTC
静风
温度 36°C
湿度 18%
气压 1013 hPa
能見度: 16.1公里
散云层高于3000英尺, 积雨云.
散云层高于20000英尺

METAR: MMCS 250241Z 00000KT 10SM SCT030CB SCT200 36/08 A2992 RMK SLP985 52003 967 8/302

时间: 05:51 (11:51 UTC)

预报

该预报发布于6小时和58分钟前的04:53 UTC
预报有效从25日的 06点(UTC)到 26日的 06点(UTC)
风速节,风向
能見度: 10公里
散云层高于3000英尺
多云层高于20000英尺
从 25日的 1100点(UTC)
风速5节,风向西转西南
能見度: 10公里
多云层高于20000英尺
从 25日的 2000点(UTC)
风速10节,风向
能見度: 10公里
散云层高于20000英尺
成为
从 26日的 01点(UTC)到 26日的 02点(UTC)
散云层高于3000英尺

TAF: MMCS 250453Z 2506/2606 00000KT P6SM SCT030 BKN200 FM251100 25005KT P6SM BKN200 FM252000 35010KT P6SM SCT200 BECMG 2601/2602 SCT030

超过4000个机场的气象观测和天气预报(METAR&TAF报告)。

可查询的气象台以黄色和红色小点在地图上表示。

将鼠标移到小点上方,可查看气象台名称。

然后点击查看天气观测和预报。

如需切换地图:点击带黑十字的绿色按钮放大地图;点击带横线的绿色按钮缩小地图;或者点击绿色箭头查看邻近地区的地图。


METAR-TAF: